createdAt,value
2023-06-10T00:03:30.025Z,27.88
2023-06-10T00:08:32.731Z,27.89
2023-06-10T00:13:34.836Z,27.89
2023-06-10T00:18:40.031Z,27.87
2023-06-10T00:23:42.539Z,27.86
2023-06-10T00:28:46.436Z,27.85
2023-06-10T00:33:48.543Z,27.86
2023-06-10T00:38:50.803Z,27.84
2023-06-10T00:43:52.706Z,27.84
2023-06-10T00:48:54.989Z,27.84
2023-06-10T00:53:57.777Z,27.82
2023-06-10T00:59:00.178Z,27.82
2023-06-10T01:04:02.490Z,27.81
2023-06-10T01:09:30.920Z,27.81
2023-06-10T01:14:34.049Z,27.84
2023-06-10T01:19:37.974Z,27.82
2023-06-10T01:24:41.785Z,27.82
2023-06-10T01:29:50.395Z,27.77
2023-06-10T01:34:53.066Z,27.77
2023-06-10T01:40:00.064Z,27.77
2023-06-10T01:45:02.314Z,27.76
2023-06-10T01:50:04.387Z,27.77
2023-06-10T01:55:07.332Z,27.75
2023-06-10T02:00:10.318Z,27.75
2023-06-10T02:05:12.627Z,27.73
2023-06-10T02:10:14.735Z,27.74
2023-06-10T02:15:16.950Z,27.75
2023-06-10T02:20:18.952Z,27.73
2023-06-10T02:25:21.567Z,27.72
2023-06-10T02:30:23.698Z,27.72
2023-06-10T02:35:25.670Z,27.69
2023-06-10T02:40:27.846Z,27.73
2023-06-10T02:45:29.907Z,27.71
2023-06-10T02:50:31.967Z,27.66
2023-06-10T02:55:34.041Z,27.69
2023-06-10T03:00:37.223Z,27.69
2023-06-10T03:05:39.359Z,27.69
2023-06-10T03:10:41.544Z,27.68
2023-06-10T03:15:43.511Z,27.67
2023-06-10T03:20:46.032Z,27.64
2023-06-10T03:25:48.098Z,27.67
2023-06-10T03:30:50.002Z,27.64
2023-06-10T03:35:52.541Z,27.67
2023-06-10T03:40:54.535Z,27.62
2023-06-10T03:45:56.805Z,27.63
2023-06-10T03:50:59.910Z,27.64
2023-06-10T03:56:02.065Z,27.63
2023-06-10T04:01:04.144Z,27.63
2023-06-10T04:06:06.851Z,27.60
2023-06-10T04:11:09.267Z,27.56
2023-06-10T04:16:11.974Z,27.59
2023-06-10T04:21:14.234Z,27.62
2023-06-10T04:26:16.952Z,27.62
2023-06-10T04:31:19.180Z,27.60
2023-06-10T04:36:21.179Z,27.58
2023-06-10T04:41:23.824Z,27.60
2023-06-10T04:46:26.067Z,27.60
2023-06-10T04:51:28.193Z,27.57
2023-06-10T04:56:30.327Z,27.53
2023-06-10T05:01:32.700Z,27.59
2023-06-10T05:06:34.837Z,27.61
2023-06-10T05:11:36.891Z,27.60
2023-06-10T05:16:40.025Z,27.62
2023-06-10T05:21:42.222Z,27.65
2023-06-10T05:26:44.165Z,27.65
2023-06-10T05:31:46.493Z,27.67
2023-06-10T05:36:48.507Z,27.69
2023-06-10T05:41:50.507Z,27.71
2023-06-10T05:46:52.482Z,27.70
2023-06-10T05:51:54.502Z,27.69
2023-06-10T05:56:56.473Z,27.75
2023-06-10T06:01:58.415Z,27.76
2023-06-10T06:07:00.556Z,27.77
2023-06-10T06:12:02.605Z,27.81
2023-06-10T06:17:04.965Z,27.81
2023-06-10T06:22:07.148Z,27.86
2023-06-10T06:27:09.050Z,27.89
2023-06-10T06:32:11.109Z,27.90
2023-06-10T06:37:13.546Z,27.91
2023-06-10T06:42:15.676Z,27.91
2023-06-10T06:47:21.310Z,27.89
2023-06-10T06:52:23.778Z,27.91
2023-06-10T06:57:25.853Z,27.91
2023-06-10T07:02:27.856Z,27.93
2023-06-10T07:07:29.902Z,27.94
2023-06-10T07:12:32.190Z,28.01
2023-06-10T07:17:36.745Z,28.01
2023-06-10T07:22:40.453Z,28.01
2023-06-10T07:27:42.476Z,27.92
2023-06-10T07:32:45.585Z,27.98
2023-06-10T07:37:47.762Z,27.94
2023-06-10T07:42:49.696Z,28.11
2023-06-10T07:47:51.759Z,28.20
2023-06-10T07:52:53.787Z,28.10
2023-06-10T07:57:56.062Z,28.14
2023-06-10T08:02:58.078Z,28.17
2023-06-10T08:08:02.800Z,28.11
2023-06-10T08:13:06.107Z,28.22
2023-06-10T08:18:08.093Z,28.26
2023-06-10T08:23:10.308Z,28.29
2023-06-10T08:28:12.739Z,28.33
2023-06-10T08:33:14.790Z,28.31
2023-06-10T08:38:17.602Z,28.35
2023-06-10T08:43:36.063Z,28.24
2023-06-10T08:48:44.867Z,28.09
2023-06-10T08:53:55.804Z,28.13
2023-06-10T08:58:59.090Z,28.21
2023-06-10T09:04:01.763Z,28.23
2023-06-10T09:09:04.610Z,28.24
2023-06-10T09:14:06.795Z,28.30
2023-06-10T09:19:12.642Z,28.35
2023-06-10T09:24:15.193Z,28.32
2023-06-10T09:29:17.198Z,28.39
2023-06-10T09:34:19.352Z,28.27
2023-06-10T09:39:21.328Z,28.32
2023-06-10T09:44:23.541Z,28.35
2023-06-10T09:49:30.235Z,28.37
2023-06-10T09:54:33.522Z,28.41
2023-06-10T09:59:36.216Z,28.34
2023-06-10T10:04:38.134Z,28.44
2023-06-10T10:09:41.987Z,28.41
2023-06-10T10:14:48.740Z,28.39
2023-06-10T10:20:06.210Z,28.48
2023-06-10T10:25:24.665Z,28.42
2023-06-10T10:30:28.281Z,28.54
2023-06-10T10:35:32.090Z,28.44
2023-06-10T10:40:34.818Z,28.47
2023-06-10T10:45:36.839Z,28.51
2023-06-10T10:50:40.907Z,28.51
2023-06-10T10:55:42.957Z,28.51
2023-06-10T11:00:46.885Z,28.55
2023-06-10T11:05:50.864Z,28.49
2023-06-10T11:10:56.580Z,28.49
2023-06-10T11:15:59.701Z,28.51
2023-06-10T11:21:06.177Z,28.64
2023-06-10T11:26:19.903Z,28.53
2023-06-10T11:31:40.018Z,28.65
2023-06-10T11:36:43.917Z,28.57
2023-06-10T11:41:46.918Z,28.60
2023-06-10T11:46:51.207Z,28.57
2023-06-10T11:51:53.460Z,28.65
2023-06-10T11:56:59.934Z,28.58
2023-06-10T12:02:01.901Z,28.63
2023-06-10T12:07:03.850Z,28.59
2023-06-10T12:12:11.972Z,28.51
2023-06-10T12:17:14.040Z,28.61
2023-06-10T12:22:16.452Z,28.44
2023-06-10T12:27:20.049Z,28.55
2023-06-10T12:32:28.676Z,28.61
2023-06-10T12:37:30.581Z,28.56
2023-06-10T12:42:32.973Z,28.62
2023-06-10T12:47:36.897Z,28.65
2023-06-10T12:52:39.078Z,28.66
2023-06-10T12:57:49.580Z,28.68
2023-06-10T13:02:52.108Z,28.66
2023-06-10T13:07:54.244Z,28.63
2023-06-10T13:12:56.161Z,28.63
2023-06-10T13:17:58.264Z,28.76
2023-06-10T13:23:00.507Z,28.74
2023-06-10T13:28:02.800Z,28.70
2023-06-10T13:33:04.884Z,28.76
2023-06-10T13:38:08.560Z,28.71
2023-06-10T13:43:11.474Z,28.76
2023-06-10T13:48:13.473Z,28.79
2023-06-10T13:53:16.158Z,28.84
2023-06-10T13:58:18.133Z,28.78
2023-06-10T14:03:20.178Z,28.71
2023-06-10T14:08:22.628Z,28.75
2023-06-10T14:13:25.086Z,28.83
2023-06-10T14:18:26.978Z,28.77
2023-06-10T14:23:29.089Z,28.81
2023-06-10T14:28:30.975Z,28.81
2023-06-10T14:33:33.196Z,28.82
2023-06-10T14:38:35.173Z,28.88
2023-06-10T14:43:37.326Z,28.86
2023-06-10T14:48:39.392Z,28.84
2023-06-10T14:53:41.354Z,28.84
2023-06-10T14:58:43.258Z,28.89
2023-06-10T15:03:45.757Z,28.91
2023-06-10T15:08:49.951Z,28.84
2023-06-10T15:13:51.892Z,28.97
2023-06-10T15:18:53.821Z,28.97
2023-06-10T15:23:56.126Z,28.89
2023-06-10T15:28:58.424Z,28.94
2023-06-10T15:34:01.309Z,28.88
2023-06-10T15:39:05.822Z,28.86
2023-06-10T15:44:07.719Z,28.90
2023-06-10T15:49:09.877Z,28.94
2023-06-10T15:54:11.976Z,28.84
2023-06-10T15:59:14.136Z,28.87
2023-06-10T16:04:16.224Z,28.91
2023-06-10T16:09:18.425Z,28.92
2023-06-10T16:14:20.973Z,28.94
2023-06-10T16:19:23.019Z,28.93
2023-06-10T16:24:25.452Z,28.85
2023-06-10T16:29:27.884Z,29.02
2023-06-10T16:34:29.930Z,28.97
2023-06-10T16:39:31.880Z,29.12
2023-06-10T16:44:33.845Z,29.10
2023-06-10T16:49:37.702Z,29.14
2023-06-10T16:54:39.929Z,29.25
2023-06-10T16:59:41.962Z,29.21
2023-06-10T17:04:44.191Z,29.08
2023-06-10T17:09:46.270Z,28.98
2023-06-10T17:14:48.240Z,29.27
2023-06-10T17:19:51.199Z,29.31
2023-06-10T17:24:53.666Z,29.21
2023-06-10T17:29:55.490Z,29.18
2023-06-10T17:34:57.564Z,29.24
2023-06-10T17:39:59.586Z,29.12
2023-06-10T17:45:01.548Z,29.18
2023-06-10T17:50:03.641Z,29.16
2023-06-10T17:55:06.099Z,29.18
2023-06-10T18:00:08.570Z,29.17
2023-06-10T18:05:11.204Z,29.16
2023-06-10T18:10:13.710Z,29.16
2023-06-10T18:15:15.863Z,29.09
2023-06-10T18:20:17.914Z,29.15
2023-06-10T18:25:20.215Z,29.12
2023-06-10T18:30:22.458Z,29.08
2023-06-10T18:35:24.437Z,29.12
2023-06-10T18:40:26.355Z,29.10
2023-06-10T18:45:28.304Z,29.08
2023-06-10T18:50:30.407Z,29.10
2023-06-10T18:55:37.173Z,29.14
2023-06-10T19:00:39.192Z,29.12
2023-06-10T19:05:41.417Z,29.15
2023-06-10T19:10:43.647Z,29.11
2023-06-10T19:15:45.873Z,29.10
2023-06-10T19:20:48.426Z,29.11
2023-06-10T19:25:50.448Z,29.11
2023-06-10T19:30:52.406Z,29.06
2023-06-10T19:35:54.466Z,29.05
2023-06-10T19:40:56.733Z,29.07
2023-06-10T19:45:58.804Z,29.06
2023-06-10T19:51:01.041Z,29.05
2023-06-10T19:56:03.127Z,29.06
2023-06-10T20:01:05.331Z,29.08
2023-06-10T20:06:07.554Z,29.07
2023-06-10T20:11:09.630Z,29.08
2023-06-10T20:16:12.778Z,29.05
2023-06-10T20:21:18.096Z,29.07
2023-06-10T20:26:25.157Z,29.05
2023-06-10T20:31:27.793Z,29.05
2023-06-10T20:36:32.626Z,29.04
2023-06-10T20:41:35.790Z,28.99
2023-06-10T20:46:37.865Z,29.03
2023-06-10T20:51:40.009Z,29.04
2023-06-10T20:56:42.714Z,29.05
2023-06-10T21:01:45.346Z,29.02
2023-06-10T21:06:47.439Z,29.04
2023-06-10T21:11:49.305Z,28.99
2023-06-10T21:16:51.432Z,29.01
2023-06-10T21:21:53.435Z,29.02
2023-06-10T21:26:55.410Z,29.01
2023-06-10T21:31:57.744Z,29.05
2023-06-10T21:36:59.757Z,29.04
2023-06-10T21:42:01.927Z,29.09
2023-06-10T21:47:04.016Z,29.10
2023-06-10T21:52:06.444Z,29.10
2023-06-10T21:57:09.142Z,29.07
2023-06-10T22:02:11.327Z,29.09
2023-06-10T22:07:13.620Z,29.02
2023-06-10T22:12:16.625Z,29.05
2023-06-10T22:17:19.366Z,29.04
2023-06-10T22:22:21.578Z,29.03
2023-06-10T22:27:23.577Z,28.95
2023-06-10T22:32:26.152Z,28.93
2023-06-10T22:37:28.307Z,29.01
2023-06-10T22:42:30.577Z,29.03
2023-06-10T22:47:32.550Z,28.90
2023-06-10T22:52:34.740Z,28.96
2023-06-10T22:57:36.787Z,29.01
2023-06-10T23:02:39.646Z,28.89
2023-06-10T23:07:41.640Z,28.83
2023-06-10T23:12:43.678Z,28.89
2023-06-10T23:17:46.484Z,28.93
2023-06-10T23:22:53.279Z,28.87
2023-06-10T23:27:55.898Z,28.90
2023-06-10T23:32:59.858Z,28.92
2023-06-10T23:38:02.077Z,28.96
2023-06-10T23:43:04.085Z,28.94
2023-06-10T23:48:07.419Z,28.97
2023-06-10T23:53:09.656Z,28.99
2023-06-10T23:58:12.106Z,28.96
